sensor_id;sensor_type;location;lat;lon;timestamp;temperature;humidity
27016;DHT22;14557;0.000;0.000;2023-05-07T00:02:02;20.40;75.70
27016;DHT22;14557;0.000;0.000;2023-05-07T00:04:29;20.40;75.70
27016;DHT22;14557;0.000;0.000;2023-05-07T00:07:01;20.30;75.60
27016;DHT22;14557;0.000;0.000;2023-05-07T00:09:26;20.30;75.40
27016;DHT22;14557;0.000;0.000;2023-05-07T00:11:52;20.30;75.50
27016;DHT22;14557;0.000;0.000;2023-05-07T00:14:18;20.30;75.40
27016;DHT22;14557;0.000;0.000;2023-05-07T00:16:43;20.30;75.30
27016;DHT22;14557;0.000;0.000;2023-05-07T00:19:09;20.30;75.30
27016;DHT22;14557;0.000;0.000;2023-05-07T00:21:35;20.30;75.10
27016;DHT22;14557;0.000;0.000;2023-05-07T00:24:00;20.30;75.20
27016;DHT22;14557;0.000;0.000;2023-05-07T00:26:26;20.20;75.00
27016;DHT22;14557;0.000;0.000;2023-05-07T00:28:51;20.20;75.00
27016;DHT22;14557;0.000;0.000;2023-05-07T00:31:17;20.20;74.90
27016;DHT22;14557;0.000;0.000;2023-05-07T00:33:42;20.20;75.00
27016;DHT22;14557;0.000;0.000;2023-05-07T00:36:08;20.20;74.90
27016;DHT22;14557;0.000;0.000;2023-05-07T00:38:34;20.20;74.70
27016;DHT22;14557;0.000;0.000;2023-05-07T00:40:59;20.20;75.00
27016;DHT22;14557;0.000;0.000;2023-05-07T00:43:25;20.20;74.70
27016;DHT22;14557;0.000;0.000;2023-05-07T00:45:51;20.20;74.50
27016;DHT22;14557;0.000;0.000;2023-05-07T00:48:16;20.20;74.50
27016;DHT22;14557;0.000;0.000;2023-05-07T00:50:42;20.10;74.20
27016;DHT22;14557;0.000;0.000;2023-05-07T00:53:08;20.10;74.10
27016;DHT22;14557;0.000;0.000;2023-05-07T00:55:34;20.10;74.10
27016;DHT22;14557;0.000;0.000;2023-05-07T00:58:00;20.10;74.20
27016;DHT22;14557;0.000;0.000;2023-05-07T01:00:26;20.10;73.90
27016;DHT22;14557;0.000;0.000;2023-05-07T01:02:52;20.10;73.90
27016;DHT22;14557;0.000;0.000;2023-05-07T01:05:18;20.10;73.80
27016;DHT22;14557;0.000;0.000;2023-05-07T01:07:45;20.00;73.70
27016;DHT22;14557;0.000;0.000;2023-05-07T01:10:11;20.00;73.70
27016;DHT22;14557;0.000;0.000;2023-05-07T01:12:37;20.00;73.60
27016;DHT22;14557;0.000;0.000;2023-05-07T01:15:04;20.00;73.40
27016;DHT22;14557;0.000;0.000;2023-05-07T01:17:37;20.00;78.40
27016;DHT22;14557;0.000;0.000;2023-05-07T01:20:06;20.00;76.40
27016;DHT22;14557;0.000;0.000;2023-05-07T01:22:36;20.00;75.80
27016;DHT22;14557;0.000;0.000;2023-05-07T01:25:02;20.00;75.40
27016;DHT22;14557;0.000;0.000;2023-05-07T01:27:28;20.00;75.00
27016;DHT22;14557;0.000;0.000;2023-05-07T01:29:54;20.00;74.80
27016;DHT22;14557;0.000;0.000;2023-05-07T01:32:27;20.00;74.60
27016;DHT22;14557;0.000;0.000;2023-05-07T01:34:54;20.00;74.50
27016;DHT22;14557;0.000;0.000;2023-05-07T01:37:20;20.00;74.50
27016;DHT22;14557;0.000;0.000;2023-05-07T01:39:46;20.00;74.60
27016;DHT22;14557;0.000;0.000;2023-05-07T01:42:13;20.00;74.50
27016;DHT22;14557;0.000;0.000;2023-05-07T01:44:38;20.00;74.20
27016;DHT22;14557;0.000;0.000;2023-05-07T01:47:04;20.00;73.80
27016;DHT22;14557;0.000;0.000;2023-05-07T01:49:31;20.00;73.70
27016;DHT22;14557;0.000;0.000;2023-05-07T01:51:57;19.90;73.50
27016;DHT22;14557;0.000;0.000;2023-05-07T01:54:26;20.00;73.40
27016;DHT22;14557;0.000;0.000;2023-05-07T01:56:56;20.00;73.60
27016;DHT22;14557;0.000;0.000;2023-05-07T01:59:21;19.90;73.20
27016;DHT22;14557;0.000;0.000;2023-05-07T02:01:47;19.90;73.30
27016;DHT22;14557;0.000;0.000;2023-05-07T02:04:13;19.90;73.90
27016;DHT22;14557;0.000;0.000;2023-05-07T02:06:38;19.90;73.30
27016;DHT22;14557;0.000;0.000;2023-05-07T02:09:04;19.90;73.80
27016;DHT22;14557;0.000;0.000;2023-05-07T02:11:29;19.80;73.00
27016;DHT22;14557;0.000;0.000;2023-05-07T02:13:55;19.90;73.20
27016;DHT22;14557;0.000;0.000;2023-05-07T02:16:21;19.80;73.00
27016;DHT22;14557;0.000;0.000;2023-05-07T02:18:47;19.80;73.00
27016;DHT22;14557;0.000;0.000;2023-05-07T02:21:13;19.80;72.60
27016;DHT22;14557;0.000;0.000;2023-05-07T02:23:38;19.80;72.70
27016;DHT22;14557;0.000;0.000;2023-05-07T02:26:04;19.80;72.80
27016;DHT22;14557;0.000;0.000;2023-05-07T02:28:29;19.80;72.60
27016;DHT22;14557;0.000;0.000;2023-05-07T02:30:55;19.80;72.50
27016;DHT22;14557;0.000;0.000;2023-05-07T02:33:21;19.80;72.40
27016;DHT22;14557;0.000;0.000;2023-05-07T02:35:46;19.80;72.30
27016;DHT22;14557;0.000;0.000;2023-05-07T02:38:12;19.70;72.40
27016;DHT22;14557;0.000;0.000;2023-05-07T02:40:37;19.70;72.20
27016;DHT22;14557;0.000;0.000;2023-05-07T02:43:06;19.70;72.20
27016;DHT22;14557;0.000;0.000;2023-05-07T02:45:35;19.70;72.10
27016;DHT22;14557;0.000;0.000;2023-05-07T02:48:02;19.70;72.10
27016;DHT22;14557;0.000;0.000;2023-05-07T02:50:28;19.70;72.10
27016;DHT22;14557;0.000;0.000;2023-05-07T02:52:54;19.70;72.00
27016;DHT22;14557;0.000;0.000;2023-05-07T02:55:19;19.70;72.10
27016;DHT22;14557;0.000;0.000;2023-05-07T02:57:45;19.70;71.90
27016;DHT22;14557;0.000;0.000;2023-05-07T03:00:11;19.70;71.90
27016;DHT22;14557;0.000;0.000;2023-05-07T03:02:37;19.70;71.90
27016;DHT22;14557;0.000;0.000;2023-05-07T03:05:03;19.70;71.80
27016;DHT22;14557;0.000;0.000;2023-05-07T03:07:28;19.70;71.70
27016;DHT22;14557;0.000;0.000;2023-05-07T03:09:54;19.60;71.80
27016;DHT22;14557;0.000;0.000;2023-05-07T03:12:20;19.60;71.60
27016;DHT22;14557;0.000;0.000;2023-05-07T03:14:46;19.60;71.60
27016;DHT22;14557;0.000;0.000;2023-05-07T03:17:11;19.60;71.60
27016;DHT22;14557;0.000;0.000;2023-05-07T03:19:37;19.60;71.50
27016;DHT22;14557;0.000;0.000;2023-05-07T03:22:02;19.60;71.60
27016;DHT22;14557;0.000;0.000;2023-05-07T03:24:28;19.60;71.50
27016;DHT22;14557;0.000;0.000;2023-05-07T03:26:53;19.60;71.50
27016;DHT22;14557;0.000;0.000;2023-05-07T03:29:19;19.60;71.50
27016;DHT22;14557;0.000;0.000;2023-05-07T03:31:45;19.60;71.50
27016;DHT22;14557;0.000;0.000;2023-05-07T03:34:10;19.50;71.40
27016;DHT22;14557;0.000;0.000;2023-05-07T03:36:36;19.50;71.50
27016;DHT22;14557;0.000;0.000;2023-05-07T03:39:02;19.50;71.40
27016;DHT22;14557;0.000;0.000;2023-05-07T03:41:27;19.50;71.40
27016;DHT22;14557;0.000;0.000;2023-05-07T03:43:54;19.50;71.40
27016;DHT22;14557;0.000;0.000;2023-05-07T03:46:20;19.50;71.40
27016;DHT22;14557;0.000;0.000;2023-05-07T03:48:46;19.50;71.40
27016;DHT22;14557;0.000;0.000;2023-05-07T03:51:11;19.50;71.40
27016;DHT22;14557;0.000;0.000;2023-05-07T03:53:37;19.50;71.40
27016;DHT22;14557;0.000;0.000;2023-05-07T03:56:02;19.50;71.40
27016;DHT22;14557;0.000;0.000;2023-05-07T03:58:28;19.50;71.40
27016;DHT22;14557;0.000;0.000;2023-05-07T04:00:54;19.50;71.40
27016;DHT22;14557;0.000;0.000;2023-05-07T04:03:19;19.50;71.40
27016;DHT22;14557;0.000;0.000;2023-05-07T04:05:45;19.50;71.40
27016;DHT22;14557;0.000;0.000;2023-05-07T04:08:11;19.50;71.40
27016;DHT22;14557;0.000;0.000;2023-05-07T04:10:36;19.40;71.30
27016;DHT22;14557;0.000;0.000;2023-05-07T04:13:02;19.50;71.40
27016;DHT22;14557;0.000;0.000;2023-05-07T04:15:27;19.50;71.40
27016;DHT22;14557;0.000;0.000;2023-05-07T04:17:53;19.40;71.30
27016;DHT22;14557;0.000;0.000;2023-05-07T04:20:18;19.40;71.30
27016;DHT22;14557;0.000;0.000;2023-05-07T04:22:45;19.40;71.30
27016;DHT22;14557;0.000;0.000;2023-05-07T04:25:10;19.40;71.30
27016;DHT22;14557;0.000;0.000;2023-05-07T04:27:36;19.40;71.30
27016;DHT22;14557;0.000;0.000;2023-05-07T04:30:02;19.40;71.30
27016;DHT22;14557;0.000;0.000;2023-05-07T04:32:28;19.40;71.30
27016;DHT22;14557;0.000;0.000;2023-05-07T04:34:54;19.40;71.30
27016;DHT22;14557;0.000;0.000;2023-05-07T04:37:20;19.40;71.30
27016;DHT22;14557;0.000;0.000;2023-05-07T04:39:46;19.40;71.30
27016;DHT22;14557;0.000;0.000;2023-05-07T04:42:15;19.40;72.10
27016;DHT22;14557;0.000;0.000;2023-05-07T04:44:41;19.40;71.30
27016;DHT22;14557;0.000;0.000;2023-05-07T04:47:06;19.40;71.30
27016;DHT22;14557;0.000;0.000;2023-05-07T04:49:32;19.40;71.30
27016;DHT22;14557;0.000;0.000;2023-05-07T04:51:58;19.30;71.20
27016;DHT22;14557;0.000;0.000;2023-05-07T04:54:23;19.40;71.30
27016;DHT22;14557;0.000;0.000;2023-05-07T04:56:49;19.30;71.20
27016;DHT22;14557;0.000;0.000;2023-05-07T04:59:14;19.40;71.30
27016;DHT22;14557;0.000;0.000;2023-05-07T05:01:40;19.40;71.30
27016;DHT22;14557;0.000;0.000;2023-05-07T05:04:05;19.30;71.10
27016;DHT22;14557;0.000;0.000;2023-05-07T05:06:31;19.30;71.10
27016;DHT22;14557;0.000;0.000;2023-05-07T05:08:57;19.30;71.10
27016;DHT22;14557;0.000;0.000;2023-05-07T05:11:23;19.30;71.20
27016;DHT22;14557;0.000;0.000;2023-05-07T05:13:49;19.30;71.10
27016;DHT22;14557;0.000;0.000;2023-05-07T05:16:14;19.30;71.10
27016;DHT22;14557;0.000;0.000;2023-05-07T05:18:40;19.30;71.10
27016;DHT22;14557;0.000;0.000;2023-05-07T05:21:06;19.40;71.20
27016;DHT22;14557;0.000;0.000;2023-05-07T05:23:32;19.30;71.10
27016;DHT22;14557;0.000;0.000;2023-05-07T05:25:57;19.40;71.20
27016;DHT22;14557;0.000;0.000;2023-05-07T05:28:23;19.30;71.00
27016;DHT22;14557;0.000;0.000;2023-05-07T05:30:49;19.30;71.10
27016;DHT22;14557;0.000;0.000;2023-05-07T05:33:15;19.30;71.00
27016;DHT22;14557;0.000;0.000;2023-05-07T05:35:41;19.30;71.10
27016;DHT22;14557;0.000;0.000;2023-05-07T05:38:06;19.30;71.00
27016;DHT22;14557;0.000;0.000;2023-05-07T05:40:32;19.30;71.00
27016;DHT22;14557;0.000;0.000;2023-05-07T05:42:58;19.30;71.00
27016;DHT22;14557;0.000;0.000;2023-05-07T05:45:24;19.30;71.00
27016;DHT22;14557;0.000;0.000;2023-05-07T05:47:50;19.30;71.00
27016;DHT22;14557;0.000;0.000;2023-05-07T05:50:15;19.30;70.90
27016;DHT22;14557;0.000;0.000;2023-05-07T05:52:41;19.30;71.00
27016;DHT22;14557;0.000;0.000;2023-05-07T05:55:07;19.30;70.90
27016;DHT22;14557;0.000;0.000;2023-05-07T05:57:33;19.30;70.90
27016;DHT22;14557;0.000;0.000;2023-05-07T05:59:59;19.30;71.00
27016;DHT22;14557;0.000;0.000;2023-05-07T06:02:25;19.30;70.90
27016;DHT22;14557;0.000;0.000;2023-05-07T06:04:50;19.30;70.90
27016;DHT22;14557;0.000;0.000;2023-05-07T06:07:16;19.30;70.80
27016;DHT22;14557;0.000;0.000;2023-05-07T06:09:42;19.30;71.00
27016;DHT22;14557;0.000;0.000;2023-05-07T06:12:07;19.30;70.90
27016;DHT22;14557;0.000;0.000;2023-05-07T06:14:33;19.30;70.90
27016;DHT22;14557;0.000;0.000;2023-05-07T06:16:58;19.30;70.90
27016;DHT22;14557;0.000;0.000;2023-05-07T06:19:24;19.30;70.90
27016;DHT22;14557;0.000;0.000;2023-05-07T06:21:51;19.30;70.80
27016;DHT22;14557;0.000;0.000;2023-05-07T06:24:17;19.30;70.90
27016;DHT22;14557;0.000;0.000;2023-05-07T06:26:43;19.30;70.90
27016;DHT22;14557;0.000;0.000;2023-05-07T06:29:08;19.30;70.90
27016;DHT22;14557;0.000;0.000;2023-05-07T06:31:34;19.30;70.90
27016;DHT22;14557;0.000;0.000;2023-05-07T06:33:59;19.30;70.90
27016;DHT22;14557;0.000;0.000;2023-05-07T06:36:27;19.20;70.80
27016;DHT22;14557;0.000;0.000;2023-05-07T06:38:53;19.30;70.90
27016;DHT22;14557;0.000;0.000;2023-05-07T06:41:18;19.20;70.80
27016;DHT22;14557;0.000;0.000;2023-05-07T06:43:44;19.20;70.80
27016;DHT22;14557;0.000;0.000;2023-05-07T06:46:10;19.30;70.90
27016;DHT22;14557;0.000;0.000;2023-05-07T06:48:35;19.20;70.80
27016;DHT22;14557;0.000;0.000;2023-05-07T06:51:01;19.20;70.80
27016;DHT22;14557;0.000;0.000;2023-05-07T06:53:26;19.30;70.90
27016;DHT22;14557;0.000;0.000;2023-05-07T06:55:53;19.20;70.80
27016;DHT22;14557;0.000;0.000;2023-05-07T06:58:19;19.30;70.90
27016;DHT22;14557;0.000;0.000;2023-05-07T07:00:44;19.30;70.90
27016;DHT22;14557;0.000;0.000;2023-05-07T07:03:11;19.30;70.90
27016;DHT22;14557;0.000;0.000;2023-05-07T07:05:36;19.30;70.80
27016;DHT22;14557;0.000;0.000;2023-05-07T07:08:02;19.30;70.90
27016;DHT22;14557;0.000;0.000;2023-05-07T07:10:28;19.30;70.90
27016;DHT22;14557;0.000;0.000;2023-05-07T07:12:53;19.30;70.90
27016;DHT22;14557;0.000;0.000;2023-05-07T07:15:19;19.30;70.80
27016;DHT22;14557;0.000;0.000;2023-05-07T07:17:46;19.30;70.90
27016;DHT22;14557;0.000;0.000;2023-05-07T07:20:11;19.30;70.80
27016;DHT22;14557;0.000;0.000;2023-05-07T07:22:37;19.30;70.80
27016;DHT22;14557;0.000;0.000;2023-05-07T07:25:02;19.30;70.80
27016;DHT22;14557;0.000;0.000;2023-05-07T07:27:28;19.20;70.70
27016;DHT22;14557;0.000;0.000;2023-05-07T07:29:54;19.30;70.80
27016;DHT22;14557;0.000;0.000;2023-05-07T07:32:19;19.30;71.30
27016;DHT22;14557;0.000;0.000;2023-05-07T07:34:45;19.30;72.90
27016;DHT22;14557;0.000;0.000;2023-05-07T07:37:11;19.40;82.40
27016;DHT22;14557;0.000;0.000;2023-05-07T07:39:36;19.40;79.50
27016;DHT22;14557;0.000;0.000;2023-05-07T07:42:05;19.50;78.80
27016;DHT22;14557;0.000;0.000;2023-05-07T07:44:30;19.40;76.50
27016;DHT22;14557;0.000;0.000;2023-05-07T07:46:56;19.40;80.80
27016;DHT22;14557;0.000;0.000;2023-05-07T07:49:21;19.40;77.10
27016;DHT22;14557;0.000;0.000;2023-05-07T07:51:47;19.50;78.80
27016;DHT22;14557;0.000;0.000;2023-05-07T07:54:13;19.50;78.30
27016;DHT22;14557;0.000;0.000;2023-05-07T07:56:38;19.50;77.20
27016;DHT22;14557;0.000;0.000;2023-05-07T07:59:04;19.40;76.40
27016;DHT22;14557;0.000;0.000;2023-05-07T08:01:30;19.40;75.30
27016;DHT22;14557;0.000;0.000;2023-05-07T08:03:56;19.40;75.30
27016;DHT22;14557;0.000;0.000;2023-05-07T08:06:24;19.50;76.40
27016;DHT22;14557;0.000;0.000;2023-05-07T08:08:49;19.50;75.80
27016;DHT22;14557;0.000;0.000;2023-05-07T08:11:15;19.50;75.50
27016;DHT22;14557;0.000;0.000;2023-05-07T08:13:40;19.50;75.20
27016;DHT22;14557;0.000;0.000;2023-05-07T08:16:06;19.50;74.60
27016;DHT22;14557;0.000;0.000;2023-05-07T08:18:32;19.50;75.70
27016;DHT22;14557;0.000;0.000;2023-05-07T08:20:57;19.50;75.90
27016;DHT22;14557;0.000;0.000;2023-05-07T08:23:23;19.60;75.20
27016;DHT22;14557;0.000;0.000;2023-05-07T08:25:49;19.50;74.60
27016;DHT22;14557;0.000;0.000;2023-05-07T08:28:15;19.50;74.10
27016;DHT22;14557;0.000;0.000;2023-05-07T08:30:40;19.50;73.70
27016;DHT22;14557;0.000;0.000;2023-05-07T08:33:06;19.50;73.40
27016;DHT22;14557;0.000;0.000;2023-05-07T08:35:33;19.50;73.30
27016;DHT22;14557;0.000;0.000;2023-05-07T08:37:59;19.50;73.20
27016;DHT22;14557;0.000;0.000;2023-05-07T08:40:24;19.50;73.10
27016;DHT22;14557;0.000;0.000;2023-05-07T08:42:51;19.50;72.90
27016;DHT22;14557;0.000;0.000;2023-05-07T08:45:17;19.50;72.80
27016;DHT22;14557;0.000;0.000;2023-05-07T08:47:44;19.50;72.60
27016;DHT22;14557;0.000;0.000;2023-05-07T08:50:11;19.50;72.60
27016;DHT22;14557;0.000;0.000;2023-05-07T08:52:37;19.50;72.50
27016;DHT22;14557;0.000;0.000;2023-05-07T08:55:04;19.60;72.40
27016;DHT22;14557;0.000;0.000;2023-05-07T08:57:29;19.50;72.30
27016;DHT22;14557;0.000;0.000;2023-05-07T08:59:55;19.50;72.20
27016;DHT22;14557;0.000;0.000;2023-05-07T09:02:21;19.60;72.10
27016;DHT22;14557;0.000;0.000;2023-05-07T09:04:46;19.60;72.10
27016;DHT22;14557;0.000;0.000;2023-05-07T09:07:12;19.60;72.00
27016;DHT22;14557;0.000;0.000;2023-05-07T09:09:37;19.60;71.90
27016;DHT22;14557;0.000;0.000;2023-05-07T09:12:03;19.60;71.90
27016;DHT22;14557;0.000;0.000;2023-05-07T09:14:29;19.60;71.80
27016;DHT22;14557;0.000;0.000;2023-05-07T09:16:56;19.50;71.70
27016;DHT22;14557;0.000;0.000;2023-05-07T09:19:25;19.50;71.70
27016;DHT22;14557;0.000;0.000;2023-05-07T09:22:00;19.60;71.80
27016;DHT22;14557;0.000;0.000;2023-05-07T09:24:26;19.50;71.70
27016;DHT22;14557;0.000;0.000;2023-05-07T09:26:53;19.60;72.20
27016;DHT22;14557;0.000;0.000;2023-05-07T09:29:20;19.60;72.70
27016;DHT22;14557;0.000;0.000;2023-05-07T09:31:46;19.60;73.10
27016;DHT22;14557;0.000;0.000;2023-05-07T09:34:11;19.70;73.60
27016;DHT22;14557;0.000;0.000;2023-05-07T09:36:37;19.70;73.30
27016;DHT22;14557;0.000;0.000;2023-05-07T09:39:03;19.80;74.80
27016;DHT22;14557;0.000;0.000;2023-05-07T09:41:30;19.90;77.50
27016;DHT22;14557;0.000;0.000;2023-05-07T09:43:55;20.10;75.10
27016;DHT22;14557;0.000;0.000;2023-05-07T09:46:24;20.20;76.30
27016;DHT22;14557;0.000;0.000;2023-05-07T09:48:52;20.30;74.10
27016;DHT22;14557;0.000;0.000;2023-05-07T09:51:22;20.30;73.20
27016;DHT22;14557;0.000;0.000;2023-05-07T09:53:51;20.30;72.50
27016;DHT22;14557;0.000;0.000;2023-05-07T09:56:17;20.30;72.10
27016;DHT22;14557;0.000;0.000;2023-05-07T09:58:43;20.20;72.00
27016;DHT22;14557;0.000;0.000;2023-05-07T10:01:10;20.20;71.80
27016;DHT22;14557;0.000;0.000;2023-05-07T10:03:37;20.20;71.40
27016;DHT22;14557;0.000;0.000;2023-05-07T10:06:04;20.10;71.00
27016;DHT22;14557;0.000;0.000;2023-05-07T10:08:30;20.10;71.10
27016;DHT22;14557;0.000;0.000;2023-05-07T10:10:56;20.10;70.80
27016;DHT22;14557;0.000;0.000;2023-05-07T10:13:21;20.10;70.80
27016;DHT22;14557;0.000;0.000;2023-05-07T10:15:47;20.10;71.00
27016;DHT22;14557;0.000;0.000;2023-05-07T10:18:13;20.10;71.40
27016;DHT22;14557;0.000;0.000;2023-05-07T10:20:39;20.10;71.50
27016;DHT22;14557;0.000;0.000;2023-05-07T10:23:05;20.10;71.20
27016;DHT22;14557;0.000;0.000;2023-05-07T10:25:32;20.10;77.30
27016;DHT22;14557;0.000;0.000;2023-05-07T10:28:02;20.10;77.30
27016;DHT22;14557;0.000;0.000;2023-05-07T10:33:08;20.10;72.80
27016;DHT22;14557;0.000;0.000;2023-05-07T10:35:37;20.10;72.30
27016;DHT22;14557;0.000;0.000;2023-05-07T10:38:04;20.10;72.80
27016;DHT22;14557;0.000;0.000;2023-05-07T10:40:30;20.10;73.40
27016;DHT22;14557;0.000;0.000;2023-05-07T10:42:57;20.10;72.60
27016;DHT22;14557;0.000;0.000;2023-05-07T10:45:23;20.10;72.00
27016;DHT22;14557;0.000;0.000;2023-05-07T10:50:36;20.00;71.40
27016;DHT22;14557;0.000;0.000;2023-05-07T10:56:28;20.10;71.20
27016;DHT22;14557;0.000;0.000;2023-05-07T10:58:29;20.00;71.00
27016;DHT22;14557;0.000;0.000;2023-05-07T11:00:58;20.10;71.10
27016;DHT22;14557;0.000;0.000;2023-05-07T11:03:24;20.00;70.80
27016;DHT22;14557;0.000;0.000;2023-05-07T11:06:32;20.10;71.00
27016;DHT22;14557;0.000;0.000;2023-05-07T11:08:54;20.00;70.80
27016;DHT22;14557;0.000;0.000;2023-05-07T11:11:33;20.00;70.80
27016;DHT22;14557;0.000;0.000;2023-05-07T11:14:05;20.10;73.60
27016;DHT22;14557;0.000;0.000;2023-05-07T11:16:31;20.10;72.70
27016;DHT22;14557;0.000;0.000;2023-05-07T11:18:58;20.10;72.60
27016;DHT22;14557;0.000;0.000;2023-05-07T11:21:40;20.10;71.70
27016;DHT22;14557;0.000;0.000;2023-05-07T11:24:06;20.10;71.50
27016;DHT22;14557;0.000;0.000;2023-05-07T11:26:42;20.10;71.60
27016;DHT22;14557;0.000;0.000;2023-05-07T11:31:40;20.10;71.20
27016;DHT22;14557;0.000;0.000;2023-05-07T11:34:06;20.20;71.10
27016;DHT22;14557;0.000;0.000;2023-05-07T11:36:32;20.20;72.30
27016;DHT22;14557;0.000;0.000;2023-05-07T11:38:58;20.20;71.60
27016;DHT22;14557;0.000;0.000;2023-05-07T11:41:33;20.20;71.40
27016;DHT22;14557;0.000;0.000;2023-05-07T11:43:59;20.20;71.30
27016;DHT22;14557;0.000;0.000;2023-05-07T11:46:27;20.20;71.10
27016;DHT22;14557;0.000;0.000;2023-05-07T11:48:53;20.30;71.10
27016;DHT22;14557;0.000;0.000;2023-05-07T11:51:19;20.20;71.00
27016;DHT22;14557;0.000;0.000;2023-05-07T11:53:46;20.30;74.00
27016;DHT22;14557;0.000;0.000;2023-05-07T11:56:13;20.30;73.10
27016;DHT22;14557;0.000;0.000;2023-05-07T11:58:39;20.30;72.70
27016;DHT22;14557;0.000;0.000;2023-05-07T12:01:07;20.30;72.40
27016;DHT22;14557;0.000;0.000;2023-05-07T12:03:33;20.40;72.30
27016;DHT22;14557;0.000;0.000;2023-05-07T12:05:59;20.40;71.90
27016;DHT22;14557;0.000;0.000;2023-05-07T12:08:25;20.40;71.50
27016;DHT22;14557;0.000;0.000;2023-05-07T12:10:50;20.40;71.20
27016;DHT22;14557;0.000;0.000;2023-05-07T12:13:20;20.40;71.00
27016;DHT22;14557;0.000;0.000;2023-05-07T12:15:46;20.40;71.00
27016;DHT22;14557;0.000;0.000;2023-05-07T12:18:12;20.40;70.90
27016;DHT22;14557;0.000;0.000;2023-05-07T12:20:38;20.40;72.00
27016;DHT22;14557;0.000;0.000;2023-05-07T12:23:04;20.40;70.90
27016;DHT22;14557;0.000;0.000;2023-05-07T12:25:30;20.40;70.70
27016;DHT22;14557;0.000;0.000;2023-05-07T12:27:56;20.40;70.70
27016;DHT22;14557;0.000;0.000;2023-05-07T12:30:24;20.40;70.80
27016;DHT22;14557;0.000;0.000;2023-05-07T12:32:53;20.50;74.50
27016;DHT22;14557;0.000;0.000;2023-05-07T12:37:57;20.50;76.90
27016;DHT22;14557;0.000;0.000;2023-05-07T12:40:34;20.50;80.00
27016;DHT22;14557;0.000;0.000;2023-05-07T12:43:00;20.60;86.30
27016;DHT22;14557;0.000;0.000;2023-05-07T12:45:26;20.60;86.90
27016;DHT22;14557;0.000;0.000;2023-05-07T12:47:51;20.70;88.50
27016;DHT22;14557;0.000;0.000;2023-05-07T12:50:17;20.70;90.60
27016;DHT22;14557;0.000;0.000;2023-05-07T12:52:43;20.80;92.20
27016;DHT22;14557;0.000;0.000;2023-05-07T12:55:12;20.80;94.00
27016;DHT22;14557;0.000;0.000;2023-05-07T12:57:39;21.00;95.40
27016;DHT22;14557;0.000;0.000;2023-05-07T13:00:05;21.00;89.90
27016;DHT22;14557;0.000;0.000;2023-05-07T13:02:32;20.90;87.30
27016;DHT22;14557;0.000;0.000;2023-05-07T13:04:57;21.00;90.50
27016;DHT22;14557;0.000;0.000;2023-05-07T13:07:24;21.00;85.70
27016;DHT22;14557;0.000;0.000;2023-05-07T13:09:50;21.00;83.10
27016;DHT22;14557;0.000;0.000;2023-05-07T13:12:15;21.00;82.10
27016;DHT22;14557;0.000;0.000;2023-05-07T13:14:41;21.00;81.30
27016;DHT22;14557;0.000;0.000;2023-05-07T13:17:06;21.00;83.40
27016;DHT22;14557;0.000;0.000;2023-05-07T13:19:32;21.10;85.40
27016;DHT22;14557;0.000;0.000;2023-05-07T13:21:58;21.20;90.40
27016;DHT22;14557;0.000;0.000;2023-05-07T13:24:23;21.20;92.70
27016;DHT22;14557;0.000;0.000;2023-05-07T13:26:49;21.30;92.90
27016;DHT22;14557;0.000;0.000;2023-05-07T13:29:15;21.30;90.20
27016;DHT22;14557;0.000;0.000;2023-05-07T13:31:41;21.30;87.20
27016;DHT22;14557;0.000;0.000;2023-05-07T13:34:09;21.30;86.20
27016;DHT22;14557;0.000;0.000;2023-05-07T13:36:35;21.30;84.30
27016;DHT22;14557;0.000;0.000;2023-05-07T13:39:02;21.30;81.90
27016;DHT22;14557;0.000;0.000;2023-05-07T13:41:28;21.30;80.90
27016;DHT22;14557;0.000;0.000;2023-05-07T13:43:54;21.20;79.20
27016;DHT22;14557;0.000;0.000;2023-05-07T13:46:20;21.20;78.00
27016;DHT22;14557;0.000;0.000;2023-05-07T13:48:45;21.20;77.30
27016;DHT22;14557;0.000;0.000;2023-05-07T13:51:11;21.20;76.70
27016;DHT22;14557;0.000;0.000;2023-05-07T13:53:36;21.20;76.30
27016;DHT22;14557;0.000;0.000;2023-05-07T13:56:02;21.20;75.80
27016;DHT22;14557;0.000;0.000;2023-05-07T13:58:29;21.20;75.40
27016;DHT22;14557;0.000;0.000;2023-05-07T14:00:55;21.20;75.00
27016;DHT22;14557;0.000;0.000;2023-05-07T14:03:21;21.10;74.90
27016;DHT22;14557;0.000;0.000;2023-05-07T14:05:46;21.20;74.20
27016;DHT22;14557;0.000;0.000;2023-05-07T14:08:12;21.10;74.00
27016;DHT22;14557;0.000;0.000;2023-05-07T14:10:39;21.10;73.50
27016;DHT22;14557;0.000;0.000;2023-05-07T14:13:05;21.10;73.50
27016;DHT22;14557;0.000;0.000;2023-05-07T14:15:30;21.10;73.20
27016;DHT22;14557;0.000;0.000;2023-05-07T14:17:58;21.10;73.10
27016;DHT22;14557;0.000;0.000;2023-05-07T14:20:24;21.10;72.60
27016;DHT22;14557;0.000;0.000;2023-05-07T14:22:50;21.10;72.40
27016;DHT22;14557;0.000;0.000;2023-05-07T14:25:16;21.10;72.30
27016;DHT22;14557;0.000;0.000;2023-05-07T14:27:41;21.00;72.20
27016;DHT22;14557;0.000;0.000;2023-05-07T14:30:07;21.00;72.20
27016;DHT22;14557;0.000;0.000;2023-05-07T14:32:33;21.00;72.00
27016;DHT22;14557;0.000;0.000;2023-05-07T14:34:59;21.10;72.00
27016;DHT22;14557;0.000;0.000;2023-05-07T14:37:24;21.10;74.60
27016;DHT22;14557;0.000;0.000;2023-05-07T14:39:50;21.10;73.60
27016;DHT22;14557;0.000;0.000;2023-05-07T14:42:16;21.10;73.50
27016;DHT22;14557;0.000;0.000;2023-05-07T14:44:41;21.10;72.80
27016;DHT22;14557;0.000;0.000;2023-05-07T14:47:07;21.10;72.40
27016;DHT22;14557;0.000;0.000;2023-05-07T14:49:33;21.10;72.40
27016;DHT22;14557;0.000;0.000;2023-05-07T14:51:58;21.10;72.30
27016;DHT22;14557;0.000;0.000;2023-05-07T14:54:27;21.10;72.40
27016;DHT22;14557;0.000;0.000;2023-05-07T14:56:53;21.20;72.50
27016;DHT22;14557;0.000;0.000;2023-05-07T14:59:18;21.20;73.90
27016;DHT22;14557;0.000;0.000;2023-05-07T15:01:49;21.20;82.60
27016;DHT22;14557;0.000;0.000;2023-05-07T15:04:14;21.30;88.10
27016;DHT22;14557;0.000;0.000;2023-05-07T15:06:40;21.40;85.90
27016;DHT22;14557;0.000;0.000;2023-05-07T15:09:05;21.30;80.90
27016;DHT22;14557;0.000;0.000;2023-05-07T15:11:31;21.30;78.50
27016;DHT22;14557;0.000;0.000;2023-05-07T15:13:57;21.30;78.20
27016;DHT22;14557;0.000;0.000;2023-05-07T15:16:22;21.30;79.60
27016;DHT22;14557;0.000;0.000;2023-05-07T15:18:48;21.30;78.70
27016;DHT22;14557;0.000;0.000;2023-05-07T15:21:13;21.30;78.10
27016;DHT22;14557;0.000;0.000;2023-05-07T15:23:39;21.30;76.90
27016;DHT22;14557;0.000;0.000;2023-05-07T15:26:06;21.30;76.90
27016;DHT22;14557;0.000;0.000;2023-05-07T15:28:33;21.30;77.30
27016;DHT22;14557;0.000;0.000;2023-05-07T15:30:59;21.30;79.50
27016;DHT22;14557;0.000;0.000;2023-05-07T15:33:24;21.30;78.20
27016;DHT22;14557;0.000;0.000;2023-05-07T15:35:50;21.30;77.40
27016;DHT22;14557;0.000;0.000;2023-05-07T15:38:16;21.30;77.90
27016;DHT22;14557;0.000;0.000;2023-05-07T15:40:42;21.30;78.70
27016;DHT22;14557;0.000;0.000;2023-05-07T15:43:08;21.30;78.20
27016;DHT22;14557;0.000;0.000;2023-05-07T15:45:40;21.30;75.70
27016;DHT22;14557;0.000;0.000;2023-05-07T15:48:07;21.30;74.40
27016;DHT22;14557;0.000;0.000;2023-05-07T15:50:32;21.20;74.60
27016;DHT22;14557;0.000;0.000;2023-05-07T15:52:58;21.30;74.90